sensor_id;sensor_type;location;lat;lon;timestamp;P1;durP1;ratioP1;P2;durP2;ratioP2
27375;SDS011;14844;51.302;6.354;2022-10-16T00:01:10;12.27;;;7.15;;
27375;SDS011;14844;51.302;6.354;2022-10-16T00:03:41;10.80;;;6.93;;
27375;SDS011;14844;51.302;6.354;2022-10-16T00:06:07;17.92;;;7.88;;
27375;SDS011;14844;51.302;6.354;2022-10-16T00:08:34;11.98;;;6.95;;
27375;SDS011;14844;51.302;6.354;2022-10-16T00:11:05;13.68;;;6.40;;
27375;SDS011;14844;51.302;6.354;2022-10-16T00:13:39;14.00;;;7.05;;
27375;SDS011;14844;51.302;6.354;2022-10-16T00:16:06;12.32;;;6.90;;
27375;SDS011;14844;51.302;6.354;2022-10-16T00:18:32;11.52;;;6.80;;
27375;SDS011;14844;51.302;6.354;2022-10-16T00:21:05;10.55;;;6.68;;
27375;SDS011;14844;51.302;6.354;2022-10-16T00:23:35;10.68;;;5.78;;
27375;SDS011;14844;51.302;6.354;2022-10-16T00:26:03;12.43;;;6.53;;
27375;SDS011;14844;51.302;6.354;2022-10-16T00:28:31;17.75;;;6.43;;
27375;SDS011;14844;51.302;6.354;2022-10-16T00:30:57;10.77;;;6.10;;
27375;SDS011;14844;51.302;6.354;2022-10-16T00:33:23;8.95;;;4.90;;
27375;SDS011;14844;51.302;6.354;2022-10-16T00:35:50;11.00;;;5.07;;
27375;SDS011;14844;51.302;6.354;2022-10-16T00:38:16;9.20;;;5.53;;
27375;SDS011;14844;51.302;6.354;2022-10-16T00:40:42;7.65;;;5.03;;
27375;SDS011;14844;51.302;6.354;2022-10-16T00:43:31;7.75;;;5.20;;
27375;SDS011;14844;51.302;6.354;2022-10-16T00:46:18;10.88;;;5.47;;
27375;SDS011;14844;51.302;6.354;2022-10-16T00:51:31;9.68;;;4.90;;
27375;SDS011;14844;51.302;6.354;2022-10-16T00:54:04;8.40;;;4.25;;
27375;SDS011;14844;51.302;6.354;2022-10-16T00:56:35;6.47;;;4.15;;
27375;SDS011;14844;51.302;6.354;2022-10-16T00:59:01;8.05;;;4.43;;
27375;SDS011;14844;51.302;6.354;2022-10-16T01:01:31;6.25;;;4.22;;
27375;SDS011;14844;51.302;6.354;2022-10-16T01:03:57;11.95;;;4.60;;
27375;SDS011;14844;51.302;6.354;2022-10-16T01:06:34;8.38;;;4.30;;
27375;SDS011;14844;51.302;6.354;2022-10-16T01:11:44;8.27;;;4.13;;
27375;SDS011;14844;51.302;6.354;2022-10-16T01:14:19;13.18;;;4.65;;
27375;SDS011;14844;51.302;6.354;2022-10-16T01:16:52;8.88;;;4.00;;
27375;SDS011;14844;51.302;6.354;2022-10-16T01:22:29;8.15;;;3.63;;
27375;SDS011;14844;51.302;6.354;2022-10-16T01:25:25;7.80;;;4.10;;
27375;SDS011;14844;51.302;6.354;2022-10-16T01:28:04;7.68;;;4.03;;
27375;SDS011;14844;51.302;6.354;2022-10-16T01:30:34;7.38;;;3.72;;
27375;SDS011;14844;51.302;6.354;2022-10-16T01:33:03;8.07;;;4.03;;
27375;SDS011;14844;51.302;6.354;2022-10-16T01:35:36;10.90;;;4.50;;
27375;SDS011;14844;51.302;6.354;2022-10-16T01:38:07;12.88;;;4.40;;
27375;SDS011;14844;51.302;6.354;2022-10-16T01:40:49;6.93;;;4.00;;
27375;SDS011;14844;51.302;6.354;2022-10-16T01:43:22;9.68;;;3.97;;
27375;SDS011;14844;51.302;6.354;2022-10-16T01:45:56;9.00;;;4.90;;
27375;SDS011;14844;51.302;6.354;2022-10-16T01:48:22;12.25;;;4.80;;
27375;SDS011;14844;51.302;6.354;2022-10-16T01:50:54;7.53;;;3.92;;
27375;SDS011;14844;51.302;6.354;2022-10-16T01:53:23;11.10;;;4.82;;
27375;SDS011;14844;51.302;6.354;2022-10-16T01:55:50;9.07;;;4.75;;
27375;SDS011;14844;51.302;6.354;2022-10-16T01:58:20;6.18;;;4.13;;
27375;SDS011;14844;51.302;6.354;2022-10-16T02:00:47;10.20;;;4.40;;
27375;SDS011;14844;51.302;6.354;2022-10-16T02:03:13;7.60;;;4.40;;
27375;SDS011;14844;51.302;6.354;2022-10-16T02:05:46;7.07;;;4.22;;
27375;SDS011;14844;51.302;6.354;2022-10-16T02:08:15;10.82;;;3.90;;
27375;SDS011;14844;51.302;6.354;2022-10-16T02:10:41;13.20;;;4.60;;
27375;SDS011;14844;51.302;6.354;2022-10-16T02:13:11;7.68;;;3.85;;
27375;SDS011;14844;51.302;6.354;2022-10-16T02:15:42;9.60;;;3.90;;
27375;SDS011;14844;51.302;6.354;2022-10-16T02:18:07;6.57;;;3.85;;
27375;SDS011;14844;51.302;6.354;2022-10-16T02:20:36;7.00;;;4.18;;
27375;SDS011;14844;51.302;6.354;2022-10-16T02:23:58;10.05;;;4.40;;
27375;SDS011;14844;51.302;6.354;2022-10-16T02:29:20;7.68;;;4.28;;
27375;SDS011;14844;51.302;6.354;2022-10-16T02:31:50;10.43;;;4.30;;
27375;SDS011;14844;51.302;6.354;2022-10-16T02:34:20;11.48;;;3.53;;
27375;SDS011;14844;51.302;6.354;2022-10-16T02:36:48;5.93;;;3.80;;
27375;SDS011;14844;51.302;6.354;2022-10-16T02:39:15;7.15;;;4.00;;
27375;SDS011;14844;51.302;6.354;2022-10-16T02:41:43;8.00;;;4.07;;
27375;SDS011;14844;51.302;6.354;2022-10-16T02:44:08;9.30;;;3.17;;
27375;SDS011;14844;51.302;6.354;2022-10-16T02:46:34;6.45;;;3.65;;
27375;SDS011;14844;51.302;6.354;2022-10-16T02:48:59;9.27;;;4.20;;
27375;SDS011;14844;51.302;6.354;2022-10-16T02:51:25;7.05;;;3.40;;
27375;SDS011;14844;51.302;6.354;2022-10-16T02:53:51;6.32;;;3.60;;
27375;SDS011;14844;51.302;6.354;2022-10-16T02:56:16;8.13;;;3.15;;
27375;SDS011;14844;51.302;6.354;2022-10-16T02:58:42;6.03;;;3.40;;
27375;SDS011;14844;51.302;6.354;2022-10-16T03:01:07;5.93;;;3.17;;
27375;SDS011;14844;51.302;6.354;2022-10-16T03:03:33;7.30;;;3.63;;
27375;SDS011;14844;51.302;6.354;2022-10-16T03:05:58;6.03;;;3.50;;
27375;SDS011;14844;51.302;6.354;2022-10-16T03:08:24;6.72;;;3.60;;
27375;SDS011;14844;51.302;6.354;2022-10-16T03:10:50;4.85;;;3.20;;
27375;SDS011;14844;51.302;6.354;2022-10-16T03:13:16;5.45;;;2.95;;
27375;SDS011;14844;51.302;6.354;2022-10-16T03:15:41;7.13;;;3.30;;
27375;SDS011;14844;51.302;6.354;2022-10-16T03:18:08;6.55;;;2.92;;
27375;SDS011;14844;51.302;6.354;2022-10-16T03:20:33;9.13;;;3.50;;
27375;SDS011;14844;51.302;6.354;2022-10-16T03:22:59;10.77;;;3.22;;
27375;SDS011;14844;51.302;6.354;2022-10-16T03:25:24;5.25;;;2.90;;
27375;SDS011;14844;51.302;6.354;2022-10-16T03:27:50;5.43;;;2.80;;
27375;SDS011;14844;51.302;6.354;2022-10-16T03:30:15;6.70;;;3.25;;
27375;SDS011;14844;51.302;6.354;2022-10-16T03:32:41;4.30;;;2.60;;
27375;SDS011;14844;51.302;6.354;2022-10-16T03:35:08;10.43;;;3.40;;
27375;SDS011;14844;51.302;6.354;2022-10-16T03:37:34;5.93;;;2.90;;
27375;SDS011;14844;51.302;6.354;2022-10-16T03:39:59;5.28;;;2.78;;
27375;SDS011;14844;51.302;6.354;2022-10-16T03:42:25;5.25;;;2.90;;
27375;SDS011;14844;51.302;6.354;2022-10-16T03:44:50;4.80;;;2.88;;
27375;SDS011;14844;51.302;6.354;2022-10-16T03:47:16;5.15;;;3.00;;
27375;SDS011;14844;51.302;6.354;2022-10-16T03:49:45;5.13;;;3.08;;
27375;SDS011;14844;51.302;6.354;2022-10-16T03:52:11;8.18;;;3.05;;
27375;SDS011;14844;51.302;6.354;2022-10-16T03:54:36;7.30;;;3.30;;
27375;SDS011;14844;51.302;6.354;2022-10-16T03:57:02;5.70;;;3.10;;
27375;SDS011;14844;51.302;6.354;2022-10-16T03:59:27;8.60;;;2.83;;
27375;SDS011;14844;51.302;6.354;2022-10-16T04:01:53;8.70;;;3.53;;
27375;SDS011;14844;51.302;6.354;2022-10-16T04:04:18;5.82;;;3.20;;
27375;SDS011;14844;51.302;6.354;2022-10-16T04:06:44;6.07;;;3.00;;
27375;SDS011;14844;51.302;6.354;2022-10-16T04:09:09;5.72;;;3.00;;
27375;SDS011;14844;51.302;6.354;2022-10-16T04:11:35;8.05;;;3.00;;
27375;SDS011;14844;51.302;6.354;2022-10-16T04:14:00;4.45;;;2.90;;
27375;SDS011;14844;51.302;6.354;2022-10-16T04:16:26;7.80;;;3.03;;
27375;SDS011;14844;51.302;6.354;2022-10-16T04:18:51;6.35;;;2.80;;
27375;SDS011;14844;51.302;6.354;2022-10-16T04:21:17;3.63;;;2.80;;
27375;SDS011;14844;51.302;6.354;2022-10-16T04:23:42;6.47;;;3.20;;
27375;SDS011;14844;51.302;6.354;2022-10-16T04:26:08;6.38;;;3.25;;
27375;SDS011;14844;51.302;6.354;2022-10-16T04:28:35;6.25;;;3.00;;
27375;SDS011;14844;51.302;6.354;2022-10-16T04:31:03;5.60;;;3.13;;
27375;SDS011;14844;51.302;6.354;2022-10-16T04:33:29;5.25;;;3.33;;
27375;SDS011;14844;51.302;6.354;2022-10-16T04:35:58;4.60;;;2.70;;
27375;SDS011;14844;51.302;6.354;2022-10-16T04:38:24;4.60;;;2.90;;
27375;SDS011;14844;51.302;6.354;2022-10-16T04:40:50;4.20;;;2.67;;
27375;SDS011;14844;51.302;6.354;2022-10-16T04:43:15;5.80;;;3.10;;
27375;SDS011;14844;51.302;6.354;2022-10-16T04:45:41;7.70;;;3.10;;
27375;SDS011;14844;51.302;6.354;2022-10-16T04:48:07;4.85;;;3.15;;
27375;SDS011;14844;51.302;6.354;2022-10-16T04:50:32;4.15;;;3.15;;
27375;SDS011;14844;51.302;6.354;2022-10-16T04:52:58;9.65;;;2.90;;
27375;SDS011;14844;51.302;6.354;2022-10-16T04:55:24;6.97;;;2.75;;
27375;SDS011;14844;51.302;6.354;2022-10-16T04:57:50;5.13;;;2.95;;
27375;SDS011;14844;51.302;6.354;2022-10-16T05:00:15;15.75;;;3.40;;
27375;SDS011;14844;51.302;6.354;2022-10-16T05:02:41;5.05;;;3.30;;
27375;SDS011;14844;51.302;6.354;2022-10-16T05:05:06;5.13;;;3.10;;
27375;SDS011;14844;51.302;6.354;2022-10-16T05:07:32;8.85;;;2.90;;
27375;SDS011;14844;51.302;6.354;2022-10-16T05:09:58;6.18;;;2.80;;
27375;SDS011;14844;51.302;6.354;2022-10-16T05:12:23;6.75;;;3.05;;
27375;SDS011;14844;51.302;6.354;2022-10-16T05:14:49;4.97;;;2.85;;
27375;SDS011;14844;51.302;6.354;2022-10-16T05:17:14;5.47;;;3.17;;
27375;SDS011;14844;51.302;6.354;2022-10-16T05:19:40;7.40;;;2.63;;
27375;SDS011;14844;51.302;6.354;2022-10-16T05:22:05;5.03;;;2.65;;
27375;SDS011;14844;51.302;6.354;2022-10-16T05:24:31;8.00;;;2.83;;
27375;SDS011;14844;51.302;6.354;2022-10-16T05:26:56;7.00;;;2.70;;
27375;SDS011;14844;51.302;6.354;2022-10-16T05:29:22;5.18;;;2.70;;
27375;SDS011;14844;51.302;6.354;2022-10-16T05:31:49;6.15;;;2.55;;
27375;SDS011;14844;51.302;6.354;2022-10-16T05:34:16;6.28;;;2.65;;
27375;SDS011;14844;51.302;6.354;2022-10-16T05:36:42;10.20;;;2.92;;
27375;SDS011;14844;51.302;6.354;2022-10-16T05:39:10;7.00;;;2.78;;
27375;SDS011;14844;51.302;6.354;2022-10-16T05:41:35;7.63;;;2.92;;
27375;SDS011;14844;51.302;6.354;2022-10-16T05:44:03;3.58;;;2.60;;
27375;SDS011;14844;51.302;6.354;2022-10-16T05:46:29;5.82;;;2.67;;
27375;SDS011;14844;51.302;6.354;2022-10-16T05:48:55;5.55;;;2.58;;
27375;SDS011;14844;51.302;6.354;2022-10-16T05:51:20;9.27;;;2.80;;
27375;SDS011;14844;51.302;6.354;2022-10-16T05:53:46;4.82;;;2.80;;
27375;SDS011;14844;51.302;6.354;2022-10-16T05:56:12;6.55;;;3.15;;
27375;SDS011;14844;51.302;6.354;2022-10-16T05:58:38;6.13;;;3.15;;
27375;SDS011;14844;51.302;6.354;2022-10-16T06:01:12;5.75;;;3.00;;
27375;SDS011;14844;51.302;6.354;2022-10-16T06:03:39;5.65;;;3.10;;
27375;SDS011;14844;51.302;6.354;2022-10-16T06:06:09;6.25;;;3.05;;
27375;SDS011;14844;51.302;6.354;2022-10-16T06:08:46;5.22;;;3.10;;
27375;SDS011;14844;51.302;6.354;2022-10-16T06:11:14;5.93;;;3.30;;
27375;SDS011;14844;51.302;6.354;2022-10-16T06:13:41;8.93;;;3.45;;
27375;SDS011;14844;51.302;6.354;2022-10-16T06:16:07;8.98;;;3.60;;
27375;SDS011;14844;51.302;6.354;2022-10-16T06:18:34;6.30;;;3.65;;
27375;SDS011;14844;51.302;6.354;2022-10-16T06:21:06;8.75;;;3.80;;
27375;SDS011;14844;51.302;6.354;2022-10-16T06:23:36;6.05;;;3.13;;
27375;SDS011;14844;51.302;6.354;2022-10-16T06:26:05;4.90;;;3.15;;
27375;SDS011;14844;51.302;6.354;2022-10-16T06:28:32;4.05;;;3.20;;
27375;SDS011;14844;51.302;6.354;2022-10-16T06:31:01;5.80;;;3.30;;
27375;SDS011;14844;51.302;6.354;2022-10-16T06:33:28;6.57;;;3.67;;
27375;SDS011;14844;51.302;6.354;2022-10-16T06:35:53;6.30;;;3.42;;
27375;SDS011;14844;51.302;6.354;2022-10-16T06:38:19;8.48;;;3.50;;
27375;SDS011;14844;51.302;6.354;2022-10-16T06:40:44;11.85;;;3.70;;
27375;SDS011;14844;51.302;6.354;2022-10-16T06:43:10;7.40;;;3.50;;
27375;SDS011;14844;51.302;6.354;2022-10-16T06:45:35;8.73;;;3.90;;
27375;SDS011;14844;51.302;6.354;2022-10-16T06:48:02;6.50;;;3.60;;
27375;SDS011;14844;51.302;6.354;2022-10-16T06:50:27;8.57;;;3.70;;
27375;SDS011;14844;51.302;6.354;2022-10-16T06:52:53;5.90;;;3.50;;
27375;SDS011;14844;51.302;6.354;2022-10-16T06:55:18;7.68;;;3.70;;
27375;SDS011;14844;51.302;6.354;2022-10-16T06:57:46;7.57;;;3.70;;
27375;SDS011;14844;51.302;6.354;2022-10-16T07:00:12;7.57;;;3.47;;
27375;SDS011;14844;51.302;6.354;2022-10-16T07:02:37;10.18;;;4.07;;
27375;SDS011;14844;51.302;6.354;2022-10-16T07:05:03;7.72;;;3.60;;
27375;SDS011;14844;51.302;6.354;2022-10-16T07:07:29;6.72;;;3.80;;
27375;SDS011;14844;51.302;6.354;2022-10-16T07:09:54;10.25;;;3.78;;
27375;SDS011;14844;51.302;6.354;2022-10-16T07:12:20;10.77;;;3.78;;
27375;SDS011;14844;51.302;6.354;2022-10-16T07:14:45;9.20;;;3.30;;
27375;SDS011;14844;51.302;6.354;2022-10-16T07:17:11;12.45;;;4.15;;
27375;SDS011;14844;51.302;6.354;2022-10-16T07:19:36;11.20;;;3.60;;
27375;SDS011;14844;51.302;6.354;2022-10-16T07:22:03;7.75;;;3.60;;
27375;SDS011;14844;51.302;6.354;2022-10-16T07:24:29;5.03;;;3.20;;
27375;SDS011;14844;51.302;6.354;2022-10-16T07:26:55;5.95;;;3.15;;
27375;SDS011;14844;51.302;6.354;2022-10-16T07:29:21;7.50;;;2.65;;
27375;SDS011;14844;51.302;6.354;2022-10-16T07:31:47;6.20;;;2.95;;
27375;SDS011;14844;51.302;6.354;2022-10-16T07:34:13;4.88;;;2.92;;
27375;SDS011;14844;51.302;6.354;2022-10-16T07:36:40;6.82;;;2.60;;
27375;SDS011;14844;51.302;6.354;2022-10-16T07:39:06;7.05;;;2.67;;
27375;SDS011;14844;51.302;6.354;2022-10-16T07:41:31;8.82;;;2.55;;
27375;SDS011;14844;51.302;6.354;2022-10-16T07:43:58;4.78;;;2.42;;
27375;SDS011;14844;51.302;6.354;2022-10-16T07:46:27;3.58;;;1.90;;
27375;SDS011;14844;51.302;6.354;2022-10-16T07:48:53;7.22;;;2.13;;
27375;SDS011;14844;51.302;6.354;2022-10-16T07:51:19;6.80;;;1.80;;
27375;SDS011;14844;51.302;6.354;2022-10-16T07:53:47;4.82;;;1.73;;
27375;SDS011;14844;51.302;6.354;2022-10-16T07:56:13;4.50;;;1.77;;
27375;SDS011;14844;51.302;6.354;2022-10-16T07:58:39;5.40;;;1.70;;
27375;SDS011;14844;51.302;6.354;2022-10-16T08:01:11;5.85;;;1.90;;
27375;SDS011;14844;51.302;6.354;2022-10-16T08:03:41;6.28;;;1.90;;
27375;SDS011;14844;51.302;6.354;2022-10-16T08:06:09;4.78;;;1.58;;
27375;SDS011;14844;51.302;6.354;2022-10-16T08:08:34;6.70;;;1.60;;
27375;SDS011;14844;51.302;6.354;2022-10-16T08:11:00;6.75;;;1.80;;
27375;SDS011;14844;51.302;6.354;2022-10-16T08:13:28;8.25;;;1.65;;
27375;SDS011;14844;51.302;6.354;2022-10-16T08:15:54;2.70;;;1.33;;
27375;SDS011;14844;51.302;6.354;2022-10-16T08:18:20;5.68;;;1.30;;
27375;SDS011;14844;51.302;6.354;2022-10-16T08:20:46;4.43;;;1.60;;
27375;SDS011;14844;51.302;6.354;2022-10-16T08:23:12;5.20;;;1.35;;
27375;SDS011;14844;51.302;6.354;2022-10-16T08:25:38;4.63;;;1.80;;
27375;SDS011;14844;51.302;6.354;2022-10-16T08:28:08;6.70;;;1.35;;
27375;SDS011;14844;51.302;6.354;2022-10-16T08:30:35;5.38;;;1.30;;
27375;SDS011;14844;51.302;6.354;2022-10-16T08:33:00;5.13;;;1.48;;
27375;SDS011;14844;51.302;6.354;2022-10-16T08:35:27;4.30;;;1.20;;
27375;SDS011;14844;51.302;6.354;2022-10-16T08:37:52;2.38;;;1.10;;
27375;SDS011;14844;51.302;6.354;2022-10-16T08:42:53;3.85;;;1.10;;
27375;SDS011;14844;51.302;6.354;2022-10-16T08:48:04;6.13;;;1.17;;
27375;SDS011;14844;51.302;6.354;2022-10-16T08:50:48;7.22;;;1.33;;
27375;SDS011;14844;51.302;6.354;2022-10-16T08:53:17;4.40;;;1.27;;
27375;SDS011;14844;51.302;6.354;2022-10-16T08:55:53;4.63;;;1.10;;
27375;SDS011;14844;51.302;6.354;2022-10-16T08:58:20;3.75;;;0.90;;
27375;SDS011;14844;51.302;6.354;2022-10-16T09:00:49;4.13;;;1.08;;
27375;SDS011;14844;51.302;6.354;2022-10-16T09:06:00;4.10;;;1.13;;
27375;SDS011;14844;51.302;6.354;2022-10-16T09:08:46;6.50;;;1.30;;
27375;SDS011;14844;51.302;6.354;2022-10-16T09:11:29;4.85;;;1.08;;
27375;SDS011;14844;51.302;6.354;2022-10-16T09:16:44;5.53;;;1.02;;
27375;SDS011;14844;51.302;6.354;2022-10-16T09:19:18;5.60;;;1.35;;
27375;SDS011;14844;51.302;6.354;2022-10-16T09:21:50;5.40;;;1.10;;
27375;SDS011;14844;51.302;6.354;2022-10-16T09:24:19;8.85;;;1.02;;
27375;SDS011;14844;51.302;6.354;2022-10-16T09:26:46;7.32;;;1.00;;
27375;SDS011;14844;51.302;6.354;2022-10-16T09:29:16;11.50;;;1.42;;
27375;SDS011;14844;51.302;6.354;2022-10-16T09:31:48;3.40;;;1.05;;
27375;SDS011;14844;51.302;6.354;2022-10-16T09:37:05;6.60;;;1.10;;
27375;SDS011;14844;51.302;6.354;2022-10-16T09:42:19;4.13;;;0.77;;
27375;SDS011;14844;51.302;6.354;2022-10-16T09:44:52;5.72;;;0.90;;
27375;SDS011;14844;51.302;6.354;2022-10-16T09:47:23;3.88;;;1.30;;
27375;SDS011;14844;51.302;6.354;2022-10-16T09:49:55;5.07;;;1.00;;
27375;SDS011;14844;51.302;6.354;2022-10-16T09:52:44;2.85;;;0.80;;
27375;SDS011;14844;51.302;6.354;2022-10-16T09:55:17;3.75;;;1.10;;
27375;SDS011;14844;51.302;6.354;2022-10-16T09:57:53;6.40;;;1.00;;
27375;SDS011;14844;51.302;6.354;2022-10-16T10:00:19;3.80;;;0.90;;
27375;SDS011;14844;51.302;6.354;2022-10-16T10:02:46;7.68;;;0.95;;
27375;SDS011;14844;51.302;6.354;2022-10-16T10:05:18;7.70;;;1.10;;
27375;SDS011;14844;51.302;6.354;2022-10-16T10:07:52;6.88;;;1.20;;
27375;SDS011;14844;51.302;6.354;2022-10-16T10:10:21;5.88;;;1.00;;
27375;SDS011;14844;51.302;6.354;2022-10-16T10:12:52;4.70;;;1.02;;
27375;SDS011;14844;51.302;6.354;2022-10-16T10:15:19;3.95;;;0.80;;
27375;SDS011;14844;51.302;6.354;2022-10-16T10:17:50;3.30;;;0.80;;
27375;SDS011;14844;51.302;6.354;2022-10-16T10:22:54;6.57;;;1.10;;
27375;SDS011;14844;51.302;6.354;2022-10-16T10:25:42;5.15;;;1.05;;
27375;SDS011;14844;51.302;6.354;2022-10-16T10:28:36;5.25;;;1.00;;
27375;SDS011;14844;51.302;6.354;2022-10-16T10:39:58;5.68;;;0.98;;
27375;SDS011;14844;51.302;6.354;2022-10-16T10:42:41;3.55;;;0.90;;
27375;SDS011;14844;51.302;6.354;2022-10-16T10:45:19;2.95;;;0.82;;
27375;SDS011;14844;51.302;6.354;2022-10-16T10:53:33;4.63;;;0.90;;
27375;SDS011;14844;51.302;6.354;2022-10-16T10:56:09;4.13;;;0.80;;
27375;SDS011;14844;51.302;6.354;2022-10-16T11:01:26;3.13;;;0.80;;
27375;SDS011;14844;51.302;6.354;2022-10-16T11:07:45;5.97;;;1.10;;
27375;SDS011;14844;51.302;6.354;2022-10-16T11:10:18;4.72;;;1.02;;
27375;SDS011;14844;51.302;6.354;2022-10-16T11:12:49;4.43;;;0.90;;
27375;SDS011;14844;51.302;6.354;2022-10-16T11:15:31;2.28;;;0.70;;
27375;SDS011;14844;51.302;6.354;2022-10-16T11:18:04;3.83;;;0.82;;
27375;SDS011;14844;51.302;6.354;2022-10-16T11:20:57;5.72;;;0.90;;
27375;SDS011;14844;51.302;6.354;2022-10-16T11:23:33;5.00;;;0.82;;
27375;SDS011;14844;51.302;6.354;2022-10-16T11:26:20;5.25;;;1.05;;
27375;SDS011;14844;51.302;6.354;2022-10-16T11:28:53;5.93;;;0.90;;
27375;SDS011;14844;51.302;6.354;2022-10-16T11:31:36;6.95;;;1.23;;
27375;SDS011;14844;51.302;6.354;2022-10-16T11:39:18;4.05;;;1.63;;
27375;SDS011;14844;51.302;6.354;2022-10-16T11:41:50;2.47;;;0.57;;
27375;SDS011;14844;51.302;6.354;2022-10-16T11:44:27;5.55;;;0.77;;
27375;SDS011;14844;51.302;6.354;2022-10-16T11:49:37;2.67;;;0.60;;
27375;SDS011;14844;51.302;6.354;2022-10-16T11:57:19;5.88;;;1.15;;
27375;SDS011;14844;51.302;6.354;2022-10-16T11:59:51;4.05;;;0.55;;
27375;SDS011;14844;51.302;6.354;2022-10-16T12:02:28;3.63;;;0.90;;
27375;SDS011;14844;51.302;6.354;2022-10-16T12:10:27;4.03;;;1.05;;
27375;SDS011;14844;51.302;6.354;2022-10-16T12:12:53;3.42;;;0.77;;
27375;SDS011;14844;51.302;6.354;2022-10-16T12:15:21;5.18;;;0.90;;
27375;SDS011;14844;51.302;6.354;2022-10-16T12:17:49;2.88;;;0.88;;
27375;SDS011;14844;51.302;6.354;2022-10-16T12:20:20;3.58;;;0.95;;
27375;SDS011;14844;51.302;6.354;2022-10-16T12:23:06;3.17;;;0.90;;
27375;SDS011;14844;51.302;6.354;2022-10-16T12:25:43;2.92;;;0.75;;
27375;SDS011;14844;51.302;6.354;2022-10-16T12:28:26;7.93;;;0.98;;
27375;SDS011;14844;51.302;6.354;2022-10-16T12:30:54;5.65;;;0.73;;
27375;SDS011;14844;51.302;6.354;2022-10-16T12:33:23;4.45;;;1.25;;
27375;SDS011;14844;51.302;6.354;2022-10-16T12:35:51;4.13;;;0.75;;
27375;SDS011;14844;51.302;6.354;2022-10-16T12:38:21;2.75;;;0.70;;
27375;SDS011;14844;51.302;6.354;2022-10-16T12:41:04;3.97;;;0.93;;
27375;SDS011;14844;51.302;6.354;2022-10-16T12:49:04;3.10;;;0.70;;
27375;SDS011;14844;51.302;6.354;2022-10-16T12:54:20;6.70;;;0.90;;
27375;SDS011;14844;51.302;6.354;2022-10-16T12:59:50;6.07;;;0.90;;
27375;SDS011;14844;51.302;6.354;2022-10-16T13:05:43;5.18;;;0.80;;
27375;SDS011;14844;51.302;6.354;2022-10-16T13:08:33;5.07;;;0.80;;
27375;SDS011;14844;51.302;6.354;2022-10-16T13:16:59;5.15;;;0.98;;
27375;SDS011;14844;51.302;6.354;2022-10-16T13:19:42;3.08;;;0.70;;
27375;SDS011;14844;51.302;6.354;2022-10-16T13:22:18;4.55;;;1.30;;
27375;SDS011;14844;51.302;6.354;2022-10-16T13:27:54;7.53;;;0.85;;
27375;SDS011;14844;51.302;6.354;2022-10-16T13:30:22;3.92;;;0.68;;
27375;SDS011;14844;51.302;6.354;2022-10-16T13:33:03;4.80;;;0.93;;
27375;SDS011;14844;51.302;6.354;2022-10-16T13:43:42;4.45;;;0.60;;
27375;SDS011;14844;51.302;6.354;2022-10-16T13:46:14;3.63;;;0.93;;
27375;SDS011;14844;51.302;6.354;2022-10-16T13:48:41;3.15;;;0.75;;
27375;SDS011;14844;51.302;6.354;2022-10-16T13:51:17;3.78;;;0.70;;
27375;SDS011;14844;51.302;6.354;2022-10-16T13:53:43;4.50;;;0.70;;
27375;SDS011;14844;51.302;6.354;2022-10-16T13:56:11;6.88;;;0.93;;
27375;SDS011;14844;51.302;6.354;2022-10-16T13:58:38;5.07;;;0.68;;
27375;SDS011;14844;51.302;6.354;2022-10-16T14:01:05;5.00;;;0.70;;
27375;SDS011;14844;51.302;6.354;2022-10-16T14:04:04;2.50;;;0.55;;
27375;SDS011;14844;51.302;6.354;2022-10-16T14:06:32;4.53;;;0.70;;
27375;SDS011;14844;51.302;6.354;2022-10-16T14:11:49;2.83;;;0.82;;
27375;SDS011;14844;51.302;6.354;2022-10-16T14:14:18;5.57;;;1.75;;
27375;SDS011;14844;51.302;6.354;2022-10-16T14:16:44;5.55;;;0.73;;
27375;SDS011;14844;51.302;6.354;2022-10-16T14:19:27;3.15;;;0.57;;
27375;SDS011;14844;51.302;6.354;2022-10-16T14:21:54;4.97;;;0.65;;
27375;SDS011;14844;51.302;6.354;2022-10-16T14:24:27;4.20;;;1.00;;
27375;SDS011;14844;51.302;6.354;2022-10-16T14:26:58;3.45;;;0.90;;
27375;SDS011;14844;51.302;6.354;2022-10-16T14:29:26;3.30;;;0.73;;
27375;SDS011;14844;51.302;6.354;2022-10-16T14:31:57;5.15;;;0.80;;
27375;SDS011;14844;51.302;6.354;2022-10-16T14:37:08;5.05;;;0.60;;
27375;SDS011;14844;51.302;6.354;2022-10-16T14:39:48;3.38;;;0.73;;
27375;SDS011;14844;51.302;6.354;2022-10-16T14:42:16;2.77;;;0.73;;
27375;SDS011;14844;51.302;6.354;2022-10-16T14:44:43;3.58;;;0.63;;
27375;SDS011;14844;51.302;6.354;2022-10-16T14:47:11;4.00;;;0.73;;
27375;SDS011;14844;51.302;6.354;2022-10-16T14:49:41;6.05;;;0.80;;
27375;SDS011;14844;51.302;6.354;2022-10-16T14:52:10;4.85;;;1.00;;
27375;SDS011;14844;51.302;6.354;2022-10-16T14:54:37;3.63;;;0.93;;
27375;SDS011;14844;51.302;6.354;2022-10-16T14:57:03;4.05;;;0.63;;
27375;SDS011;14844;51.302;6.354;2022-10-16T14:59:34;3.50;;;0.70;;
27375;SDS011;14844;51.302;6.354;2022-10-16T15:04:47;4.63;;;0.95;;
27375;SDS011;14844;51.302;6.354;2022-10-16T15:07:13;4.47;;;0.90;;
27375;SDS011;14844;51.302;6.354;2022-10-16T15:09:38;2.60;;;0.70;;
27375;SDS011;14844;51.302;6.354;2022-10-16T15:12:04;4.25;;;1.02;;
27375;SDS011;14844;51.302;6.354;2022-10-16T15:14:30;1.67;;;0.80;;
27375;SDS011;14844;51.302;6.354;2022-10-16T15:16:56;3.25;;;1.10;;
27375;SDS011;14844;51.302;6.354;2022-10-16T15:19:22;3.92;;;0.98;;
27375;SDS011;14844;51.302;6.354;2022-10-16T15:21:48;4.15;;;0.98;;
27375;SDS011;14844;51.302;6.354;2022-10-16T15:24:14;3.63;;;1.02;;
27375;SDS011;14844;51.302;6.354;2022-10-16T15:26:39;3.88;;;0.98;;
27375;SDS011;14844;51.302;6.354;2022-10-16T15:29:05;5.32;;;1.60;;
27375;SDS011;14844;51.302;6.354;2022-10-16T15:31:31;4.90;;;1.45;;
27375;SDS011;14844;51.302;6.354;2022-10-16T15:33:57;6.20;;;1.08;;
27375;SDS011;14844;51.302;6.354;2022-10-16T15:36:28;3.85;;;0.85;;
27375;SDS011;14844;51.302;6.354;2022-10-16T15:39:05;4.70;;;0.90;;
27375;SDS011;14844;51.302;6.354;2022-10-16T15:41:41;4.15;;;1.23;;
27375;SDS011;14844;51.302;6.354;2022-10-16T15:44:07;2.17;;;1.10;;
27375;SDS011;14844;51.302;6.354;2022-10-16T15:46:33;5.22;;;1.23;;
27375;SDS011;14844;51.302;6.354;2022-10-16T15:48:59;6.68;;;0.90;;
27375;SDS011;14844;51.302;6.354;2022-10-16T15:51:25;2.97;;;1.08;;
27375;SDS011;14844;51.302;6.354;2022-10-16T15:53:57;5.20;;;0.98;;
27375;SDS011;14844;51.302;6.354;2022-10-16T15:56:26;3.75;;;1.30;;
27375;SDS011;14844;51.302;6.354;2022-10-16T15:58:53;7.43;;;1.10;;
27375;SDS011;14844;51.302;6.354;2022-10-16T16:01:19;8.48;;;2.13;;
27375;SDS011;14844;51.302;6.354;2022-10-16T16:03:44;5.28;;;1.88;;
27375;SDS011;14844;51.302;6.354;2022-10-16T16:06:11;5.25;;;1.60;;
27375;SDS011;14844;51.302;6.354;2022-10-16T16:08:37;8.30;;;1.90;;
27375;SDS011;14844;51.302;6.354;2022-10-16T16:13:31;7.35;;;1.80;;
27375;SDS011;14844;51.302;6.354;2022-10-16T16:15:57;5.82;;;1.50;;
27375;SDS011;14844;51.302;6.354;2022-10-16T16:18:22;4.72;;;1.50;;
27375;SDS011;14844;51.302;6.354;2022-10-16T16:20:49;6.35;;;1.83;;
27375;SDS011;14844;51.302;6.354;2022-10-16T16:23:17;4.18;;;1.90;;
27375;SDS011;14844;51.302;6.354;2022-10-16T16:25:44;7.22;;;1.40;;
27375;SDS011;14844;51.302;6.354;2022-10-16T16:28:10;3.97;;;1.10;;
27375;SDS011;14844;51.302;6.354;2022-10-16T16:30:39;6.38;;;2.40;;
27375;SDS011;14844;51.302;6.354;2022-10-16T16:33:04;6.95;;;2.92;;
27375;SDS011;14844;51.302;6.354;2022-10-16T16:35:30;3.88;;;2.33;;
27375;SDS011;14844;51.302;6.354;2022-10-16T16:37:55;7.35;;;2.00;;
27375;SDS011;14844;51.302;6.354;2022-10-16T16:40:21;5.30;;;1.63;;
27375;SDS011;14844;51.302;6.354;2022-10-16T16:42:49;4.40;;;1.50;;
27375;SDS011;14844;51.302;6.354;2022-10-16T16:45:15;6.63;;;1.90;;
27375;SDS011;14844;51.302;6.354;2022-10-16T16:47:40;8.25;;;1.63;;
27375;SDS011;14844;51.302;6.354;2022-10-16T16:50:06;5.72;;;1.80;;